createdAt,value
2017-12-06T00:36:02.738Z,7.58
2017-12-06T00:37:16.900Z,7.57
2017-12-06T00:38:30.641Z,7.56
2017-12-06T00:39:44.316Z,7.56
2017-12-06T00:42:43.258Z,7.59
2017-12-06T00:43:56.970Z,7.61
2017-12-06T00:45:10.993Z,7.61
2017-12-06T00:46:25.066Z,7.62
2017-12-06T00:47:39.218Z,7.63
2017-12-06T00:48:53.450Z,7.65
2017-12-06T00:50:07.083Z,7.66
2017-12-06T00:51:21.282Z,7.66
2017-12-06T00:52:35.176Z,7.67
2017-12-06T00:53:49.240Z,7.67
2017-12-06T00:55:03.074Z,7.69
2017-12-06T00:56:17.300Z,7.67
2017-12-06T00:57:31.176Z,7.66
2017-12-06T00:58:44.800Z,7.61
2017-12-06T00:59:58.506Z,7.62
2017-12-06T01:01:12.605Z,7.6
2017-12-06T01:02:26.229Z,7.59
2017-12-06T01:03:40.218Z,7.56
2017-12-06T01:04:54.341Z,7.54
2017-12-06T01:06:08.533Z,7.54
2017-12-06T01:07:22.891Z,7.54
2017-12-06T01:08:36.699Z,7.52
2017-12-06T01:09:50.308Z,7.52
2017-12-06T01:11:03.929Z,7.49
2017-12-06T01:12:17.572Z,7.46
2017-12-06T01:13:32.000Z,7.41
2017-12-06T01:14:45.972Z,7.4
2017-12-06T01:15:59.739Z,7.4
2017-12-06T01:17:13.391Z,7.4
2017-12-06T01:18:27.187Z,7.4
2017-12-06T01:19:42.642Z,7.43
2017-12-06T01:20:56.544Z,7.46
2017-12-06T01:22:10.742Z,7.48
2017-12-06T01:23:24.416Z,7.48
2017-12-06T01:24:38.676Z,7.48
2017-12-06T01:25:52.592Z,7.48
2017-12-06T01:27:06.184Z,7.46
2017-12-06T01:28:20.187Z,7.45
2017-12-06T01:29:34.292Z,7.43
2017-12-06T01:30:48.194Z,7.42
2017-12-06T01:32:02.196Z,7.39
2017-12-06T01:33:15.854Z,7.38
2017-12-06T01:34:29.715Z,7.38
2017-12-06T01:35:43.232Z,7.4
2017-12-06T01:36:56.768Z,7.41
2017-12-06T01:38:10.640Z,7.44
2017-12-06T01:39:24.209Z,7.44
2017-12-06T01:40:37.986Z,7.46
2017-12-06T01:41:51.910Z,7.45
2017-12-06T01:43:05.557Z,7.47
2017-12-06T01:44:19.456Z,7.49
2017-12-06T01:45:48.963Z,7.49
2017-12-06T01:47:02.941Z,7.5
2017-12-06T01:48:16.588Z,7.5
2017-12-06T01:49:30.303Z,7.51
2017-12-06T01:50:44.281Z,7.51
2017-12-06T01:51:58.270Z,7.5
2017-12-06T01:53:11.853Z,7.5
2017-12-06T01:54:25.359Z,7.5
2017-12-06T01:55:39.486Z,7.49
2017-12-06T01:56:53.316Z,7.47
2017-12-06T01:58:07.262Z,7.5
2017-12-06T01:59:21.422Z,7.52
2017-12-06T02:00:36.084Z,7.51
2017-12-06T02:01:50.633Z,7.52
2017-12-06T02:03:04.817Z,7.53
2017-12-06T02:04:18.645Z,7.52
2017-12-06T02:05:47.975Z,7.52
2017-12-06T02:07:02.957Z,7.52
2017-12-06T02:08:19.193Z,7.51
2017-12-06T02:09:32.943Z,7.5
2017-12-06T02:10:47.246Z,7.5
2017-12-06T02:12:00.946Z,7.51
2017-12-06T02:13:14.567Z,7.51
2017-12-06T02:14:30.741Z,7.53
2017-12-06T02:15:47.737Z,7.55
2017-12-06T02:17:01.444Z,7.57
2017-12-06T02:18:15.395Z,7.57
2017-12-06T02:19:31.567Z,7.58
2017-12-06T02:20:48.820Z,7.58
2017-12-06T02:22:04.449Z,7.57
2017-12-06T02:23:20.029Z,7.57
2017-12-06T02:24:35.198Z,7.55
2017-12-06T02:25:48.959Z,7.54
2017-12-06T02:27:03.021Z,7.51
2017-12-06T02:28:16.615Z,7.49
2017-12-06T02:29:30.568Z,7.47
2017-12-06T02:30:44.536Z,7.44
2017-12-06T02:31:58.219Z,7.4
2017-12-06T02:33:12.691Z,7.37
2017-12-06T02:34:26.278Z,7.34
2017-12-06T02:35:40.053Z,7.31
2017-12-06T02:36:53.685Z,7.28
2017-12-06T02:38:07.378Z,7.27
2017-12-06T02:39:21.315Z,7.26
2017-12-06T02:40:35.187Z,7.23
2017-12-06T02:41:48.824Z,7.24
2017-12-06T02:43:02.565Z,7.23
2017-12-06T02:44:16.188Z,7.22
2017-12-06T02:45:31.120Z,7.21
2017-12-06T02:46:45.695Z,7.21
2017-12-06T02:47:59.288Z,7.2
2017-12-06T02:49:13.174Z,7.18
2017-12-06T02:50:26.968Z,7.19
2017-12-06T02:51:41.329Z,7.22
2017-12-06T02:52:55.033Z,7.25
2017-12-06T02:54:08.657Z,7.27
2017-12-06T02:55:22.694Z,7.26
2017-12-06T02:56:36.504Z,7.26
2017-12-06T02:57:50.805Z,7.25
2017-12-06T02:59:04.550Z,7.24
2017-12-06T03:00:18.251Z,7.24
2017-12-06T03:01:32.289Z,7.22
2017-12-06T03:02:45.906Z,7.21
2017-12-06T03:04:00.164Z,7.2
2017-12-06T03:05:13.783Z,7.18
2017-12-06T03:06:27.687Z,7.15
2017-12-06T03:07:41.395Z,7.14
2017-12-06T03:08:54.909Z,7.13
2017-12-06T03:10:09.043Z,7.12
2017-12-06T03:11:22.575Z,7.11
2017-12-06T03:12:36.297Z,7.08
2017-12-06T03:13:49.939Z,7.06
2017-12-06T03:15:03.438Z,7.06
2017-12-06T03:16:17.271Z,7.04
2017-12-06T03:17:30.965Z,7.05
2017-12-06T03:18:44.638Z,7.04
2017-12-06T03:19:58.218Z,7.05
2017-12-06T03:21:11.841Z,7.08
2017-12-06T03:22:25.932Z,7.07
2017-12-06T03:23:40.024Z,7.08
2017-12-06T03:24:53.844Z,7.07
2017-12-06T03:26:07.510Z,7.08
2017-12-06T03:27:21.011Z,7.08
2017-12-06T03:28:35.009Z,7.09
2017-12-06T03:29:48.940Z,7.11
2017-12-06T03:31:02.887Z,7.14
2017-12-06T03:32:16.555Z,7.14
2017-12-06T03:33:30.173Z,7.15
2017-12-06T03:34:45.002Z,7.15
2017-12-06T03:35:58.551Z,7.13
2017-12-06T03:37:12.298Z,7.11
2017-12-06T03:38:26.264Z,7.1
2017-12-06T03:39:39.793Z,7.1
2017-12-06T03:40:53.945Z,7.1
2017-12-06T03:42:07.490Z,7.11
2017-12-06T03:43:21.244Z,7.12
2017-12-06T03:44:34.863Z,7.15
2017-12-06T03:45:48.661Z,7.17
2017-12-06T03:47:02.517Z,7.18
2017-12-06T03:48:16.104Z,7.21
2017-12-06T03:49:29.899Z,7.22
2017-12-06T03:50:43.842Z,7.22
2017-12-06T03:51:57.453Z,7.25
2017-12-06T03:53:11.380Z,7.26
2017-12-06T03:54:25.381Z,7.28
2017-12-06T03:55:40.311Z,7.3
2017-12-06T03:56:53.980Z,7.32
2017-12-06T03:58:07.622Z,7.33
2017-12-06T03:59:21.902Z,7.35
2017-12-06T04:00:35.803Z,7.38
2017-12-06T04:01:49.323Z,7.41
2017-12-06T04:03:02.869Z,7.41
2017-12-06T04:04:16.503Z,7.42
2017-12-06T04:05:31.033Z,7.4
2017-12-06T04:06:44.960Z,7.38
2017-12-06T04:07:58.547Z,7.38
2017-12-06T04:09:12.365Z,7.38
2017-12-06T04:10:26.479Z,7.39
2017-12-06T04:11:40.380Z,7.4
2017-12-06T04:12:53.908Z,7.4
2017-12-06T04:14:07.485Z,7.41
2017-12-06T04:15:21.279Z,7.39
2017-12-06T04:16:35.124Z,7.39
2017-12-06T04:17:49.195Z,7.38
2017-12-06T04:19:02.757Z,7.37
2017-12-06T04:20:16.326Z,7.36
2017-12-06T04:21:30.372Z,7.4
2017-12-06T04:22:44.157Z,7.4
2017-12-06T04:23:58.122Z,7.4
2017-12-06T04:25:11.645Z,7.41
2017-12-06T04:26:25.412Z,7.41
2017-12-06T04:27:38.966Z,7.41
2017-12-06T04:28:52.488Z,7.42
2017-12-06T04:30:06.873Z,7.43
2017-12-06T04:31:20.956Z,7.43
2017-12-06T04:32:34.774Z,7.41
2017-12-06T04:33:48.971Z,7.41
2017-12-06T04:35:02.591Z,7.41
2017-12-06T04:36:16.764Z,7.43
2017-12-06T04:37:30.660Z,7.44
2017-12-06T04:38:44.313Z,7.5
2017-12-06T04:39:58.703Z,7.56
2017-12-06T04:41:12.538Z,7.61
2017-12-06T04:42:26.655Z,7.65
2017-12-06T04:43:40.229Z,7.67
2017-12-06T04:44:54.217Z,7.7
2017-12-06T04:46:07.870Z,7.72
2017-12-06T04:47:21.741Z,7.75
2017-12-06T04:48:35.812Z,7.78
2017-12-06T04:49:49.346Z,7.8
2017-12-06T04:51:02.988Z,7.83
2017-12-06T04:52:16.980Z,7.85
2017-12-06T04:53:30.700Z,7.86
2017-12-06T04:54:51.305Z,7.88
2017-12-06T04:56:05.209Z,7.9
2017-12-06T04:57:19.185Z,7.94
2017-12-06T04:58:32.851Z,7.97
2017-12-06T04:59:46.692Z,8.01
2017-12-06T05:01:00.643Z,8.01
2017-12-06T05:02:14.257Z,8.04
2017-12-06T05:03:28.553Z,8.06
2017-12-06T05:04:42.104Z,8.1
2017-12-06T05:05:56.664Z,8.12
2017-12-06T05:07:10.574Z,8.16
2017-12-06T05:08:25.296Z,8.16
2017-12-06T05:09:39.074Z,8.16
2017-12-06T05:10:52.737Z,8.15
2017-12-06T05:12:06.320Z,8.12
2017-12-06T05:13:20.396Z,8.11
2017-12-06T05:14:35.018Z,8.06
2017-12-06T05:15:48.720Z,8.06
2017-12-06T05:17:02.484Z,8.03
2017-12-06T05:18:16.022Z,8.01
2017-12-06T05:19:30.098Z,8.01
2017-12-06T05:20:43.631Z,8.02
2017-12-06T05:21:57.157Z,8.01
2017-12-06T05:23:11.311Z,7.98
2017-12-06T05:24:25.159Z,7.98
2017-12-06T05:25:39.216Z,7.96
2017-12-06T05:26:52.771Z,7.94
2017-12-06T05:28:06.460Z,7.92
2017-12-06T05:29:20.089Z,7.89
2017-12-06T05:30:33.753Z,7.83
2017-12-06T05:31:47.556Z,7.78
2017-12-06T05:33:01.073Z,7.73
2017-12-06T05:34:14.967Z,7.7
2017-12-06T05:35:28.478Z,7.69
2017-12-06T05:36:42.197Z,7.67
2017-12-06T05:37:55.895Z,7.67
2017-12-06T05:39:09.488Z,7.66
2017-12-06T05:40:23.490Z,7.65
2017-12-06T05:41:37.202Z,7.66
2017-12-06T05:42:51.038Z,7.67
2017-12-06T05:44:05.031Z,7.65
2017-12-06T05:45:18.813Z,7.67
2017-12-06T05:46:32.511Z,7.65
2017-12-06T05:47:46.195Z,7.65
2017-12-06T05:48:59.708Z,7.61
2017-12-06T05:50:14.421Z,7.61
2017-12-06T05:51:28.005Z,7.59
2017-12-06T05:52:41.851Z,7.58
2017-12-06T05:53:55.605Z,7.56
2017-12-06T05:55:09.192Z,7.56
2017-12-06T05:56:23.365Z,7.56
2017-12-06T05:57:37.243Z,7.55
2017-12-06T05:58:50.835Z,7.55
2017-12-06T06:00:04.355Z,7.56
2017-12-06T06:01:18.096Z,7.56
2017-12-06T06:02:31.979Z,7.56
2017-12-06T06:03:45.535Z,7.56
2017-12-06T06:04:59.135Z,7.56
2017-12-06T06:06:27.746Z,7.54
2017-12-06T06:07:41.589Z,7.56
2017-12-06T06:08:55.206Z,7.57
2017-12-06T06:10:09.069Z,7.59
2017-12-06T06:11:22.811Z,7.57
2017-12-06T06:12:36.402Z,7.58
2017-12-06T06:13:50.499Z,7.57
2017-12-06T06:15:04.436Z,7.57
2017-12-06T06:16:18.119Z,7.56
2017-12-06T06:17:52.244Z,7.55
2017-12-06T06:19:06.451Z,7.55
2017-12-06T06:20:20.121Z,7.55
2017-12-06T06:21:34.703Z,7.53
2017-12-06T06:22:49.443Z,7.52
2017-12-06T06:24:04.132Z,7.51
2017-12-06T06:25:18.858Z,7.52
2017-12-06T06:26:32.703Z,7.51
2017-12-06T06:27:47.397Z,7.52
2017-12-06T06:29:01.634Z,7.53
2017-12-06T06:30:15.434Z,7.52
2017-12-06T06:31:29.356Z,7.53
2017-12-06T06:32:57.970Z,7.52
2017-12-06T06:34:11.634Z,7.52
2017-12-06T06:35:25.957Z,7.49
2017-12-06T06:36:39.885Z,7.48
2017-12-06T06:37:53.982Z,7.48
2017-12-06T06:39:07.842Z,7.47
2017-12-06T06:40:21.761Z,7.47
2017-12-06T06:41:35.447Z,7.49
2017-12-06T06:42:49.428Z,7.5
2017-12-06T06:44:03.124Z,7.53
2017-12-06T06:45:16.696Z,7.54
2017-12-06T06:46:30.595Z,7.54
2017-12-06T06:47:44.907Z,7.53
2017-12-06T06:48:59.220Z,7.53
2017-12-06T06:50:13.136Z,7.52
2017-12-06T06:51:26.705Z,7.51
2017-12-06T06:52:40.267Z,7.51
2017-12-06T06:53:54.024Z,7.49
2017-12-06T06:55:07.868Z,7.49
2017-12-06T06:56:21.448Z,7.45
2017-12-06T06:57:36.035Z,7.44
2017-12-06T06:58:50.091Z,7.41
2017-12-06T07:00:04.062Z,7.39
2017-12-06T07:01:18.478Z,7.37
2017-12-06T07:02:32.113Z,7.37
